Time;durP1;ratioP1;P1;durP2;ratioP2;P2;SDS_P1;SDS_P2;PMS_P1;PMS_P2;Temp;Humidity;BMP_temperature;BMP_pressure;BME280_temperature;BME280_humidity;BME280_pressure;Samples;Min_cycle;Max_cycle;Signal;HPM_P1;HPM_P2
2022/01/11 00:02:04;;;;;;;31.17;14.25;;;;;;;;;;4984059;28;20040;-86
2022/01/11 00:04:32;;;;;;;31.85;15.45;;;;;;;;;;5000657;28;20673;-83
2022/01/11 00:06:59;;;;;;;29.80;14.90;;;;;;;;;;5002825;28;20104;-85
2022/01/11 00:09:39;;;;;;;31.58;14.38;;;;;;;;;;4998073;28;20105;-86
2022/01/11 00:12:08;;;;;;;29.23;15.10;;;;;;;;;;5000287;28;20082;-84
2022/01/11 00:14:36;;;;;;;31.15;14.98;;;;;;;;;;4985577;28;20018;-84
2022/01/11 00:17:02;;;;;;;30.88;14.65;;;;;;;;;;4984777;28;20085;-84
2022/01/11 00:19:32;;;;;;;26.52;13.60;;;;;;;;;;5001600;28;20054;-84
2022/01/11 00:22:00;;;;;;;30.92;14.52;;;;;;;;;;5000828;28;20038;-84
2022/01/11 00:24:29;;;;;;;25.85;14.05;;;;;;;;;;5003475;28;20018;-82
2022/01/11 00:27:07;;;;;;;33.63;15.70;;;;;;;;;;4981871;28;20065;-83
2022/01/11 00:29:35;;;;;;;31.20;14.63;;;;;;;;;;4998800;28;20030;-83
2022/01/11 00:32:07;;;;;;;27.83;15.30;;;;;;;;;;5002039;28;20499;-84
2022/01/11 00:34:47;;;;;;;30.98;14.27;;;;;;;;;;4999897;28;20022;-85
2022/01/11 00:37:13;;;;;;;34.58;15.60;;;;;;;;;;4983465;28;20026;-85
2022/01/11 00:39:42;;;;;;;37.63;14.95;;;;;;;;;;4999789;28;20030;-83
2022/01/11 00:42:08;;;;;;;34.40;16.25;;;;;;;;;;4983707;28;20030;-86
2022/01/11 00:44:33;;;;;;;39.53;16.05;;;;;;;;;;5000932;28;20029;-86
2022/01/11 00:46:59;;;;;;;28.15;15.30;;;;;;;;;;4998843;28;20481;-85
2022/01/11 00:49:24;;;;;;;32.83;14.95;;;;;;;;;;4997518;28;20022;-83
2022/01/11 00:51:50;;;;;;;37.08;15.50;;;;;;;;;;4998446;28;20036;-87
2022/01/11 00:54:15;;;;;;;35.42;15.60;;;;;;;;;;5009909;28;20069;-85
2022/01/11 00:56:40;;;;;;;33.33;15.15;;;;;;;;;;4996427;28;20085;-84
2022/01/11 00:59:06;;;;;;;25.77;13.68;;;;;;;;;;4992395;28;20029;-84
2022/01/11 01:01:37;;;;;;;28.05;13.88;;;;;;;;;;4977918;28;20034;-86
2022/01/11 01:04:03;;;;;;;34.97;15.90;;;;;;;;;;4975779;28;20109;-85
2022/01/11 01:06:28;;;;;;;26.17;14.10;;;;;;;;;;4995015;28;20057;-86
2022/01/11 01:08:54;;;;;;;28.17;15.20;;;;;;;;;;4994933;28;20026;-84
2022/01/11 01:11:19;;;;;;;29.58;14.90;;;;;;;;;;4994075;28;20031;-87
2022/01/11 01:13:44;;;;;;;25.30;14.20;;;;;;;;;;4993224;28;20030;-86
2022/01/11 01:16:10;;;;;;;28.85;14.88;;;;;;;;;;4976896;28;20037;-86
2022/01/11 01:18:36;;;;;;;27.92;14.52;;;;;;;;;;4994057;28;20415;-84
2022/01/11 01:21:02;;;;;;;28.30;15.02;;;;;;;;;;4997125;28;20033;-86
2022/01/11 01:23:28;;;;;;;33.45;15.73;;;;;;;;;;4998386;28;20030;-86
2022/01/11 01:25:53;;;;;;;27.02;14.93;;;;;;;;;;4996324;28;20077;-86
2022/01/11 01:28:19;;;;;;;26.67;15.15;;;;;;;;;;4997039;28;20029;-84
2022/01/11 01:30:45;;;;;;;35.90;14.20;;;;;;;;;;5008887;28;20045;-85
2022/01/11 01:33:11;;;;;;;27.83;14.50;;;;;;;;;;5008810;28;20026;-85
2022/01/11 01:35:39;;;;;;;28.90;14.55;;;;;;;;;;4977044;28;20510;-86
2022/01/11 01:38:09;;;;;;;33.30;15.35;;;;;;;;;;5006560;28;20045;-84
2022/01/11 01:40:42;;;;;;;51.40;17.38;;;;;;;;;;4994830;28;20596;-83
2022/01/11 01:43:10;;;;;;;34.58;15.23;;;;;;;;;;4992110;28;20119;-83
2022/01/11 01:45:37;;;;;;;30.10;15.27;;;;;;;;;;4992181;28;20069;-85
2022/01/11 01:48:03;;;;;;;30.55;15.45;;;;;;;;;;4993681;28;20085;-86
2022/01/11 01:50:30;;;;;;;26.73;15.15;;;;;;;;;;4995564;28;20029;-85
2022/01/11 01:52:58;;;;;;;31.77;15.35;;;;;;;;;;4990696;28;20059;-85
2022/01/11 01:55:25;;;;;;;30.02;15.43;;;;;;;;;;4995207;28;20031;-83
2022/01/11 01:57:50;;;;;;;32.05;15.82;;;;;;;;;;5000367;28;20052;-85
2022/01/11 02:00:17;;;;;;;27.05;15.27;;;;;;;;;;4972884;28;20063;-84
2022/01/11 02:02:43;;;;;;;40.67;16.17;;;;;;;;;;4993181;28;20112;-85
2022/01/11 02:05:08;;;;;;;30.50;16.17;;;;;;;;;;4974024;28;20118;-84
2022/01/11 02:07:35;;;;;;;29.40;14.60;;;;;;;;;;4994472;28;20617;-85
2022/01/11 02:10:03;;;;;;;33.67;15.32;;;;;;;;;;4973132;28;20117;-84
2022/01/11 02:12:28;;;;;;;27.90;15.68;;;;;;;;;;4991629;28;20114;-86
2022/01/11 02:14:54;;;;;;;26.55;15.27;;;;;;;;;;4992885;28;20110;-87
2022/01/11 02:17:19;;;;;;;31.02;16.75;;;;;;;;;;4992930;28;20033;-85
2022/01/11 02:19:44;;;;;;;35.45;16.75;;;;;;;;;;5008583;28;20037;-87
2022/01/11 02:22:10;;;;;;;29.83;16.10;;;;;;;;;;4981559;28;20018;-87
2022/01/11 02:24:35;;;;;;;33.50;15.70;;;;;;;;;;5006514;28;20056;-85
2022/01/11 02:27:01;;;;;;;30.52;17.00;;;;;;;;;;4994896;28;20026;-86
2022/01/11 02:29:27;;;;;;;32.85;16.83;;;;;;;;;;4994638;28;20439;-87
2022/01/11 02:31:53;;;;;;;33.35;16.73;;;;;;;;;;5012405;28;20080;-86
2022/01/11 02:34:18;;;;;;;34.25;16.20;;;;;;;;;;4998757;28;20022;-86
2022/01/11 02:36:44;;;;;;;37.90;15.82;;;;;;;;;;4995203;28;20022;-84
2022/01/11 02:39:09;;;;;;;31.60;15.77;;;;;;;;;;4994929;28;20030;-86
2022/01/11 02:41:35;;;;;;;27.98;14.35;;;;;;;;;;4993680;28;20022;-84
2022/01/11 02:44:02;;;;;;;35.22;15.50;;;;;;;;;;4993719;28;20036;-85
2022/01/11 02:46:27;;;;;;;33.63;15.95;;;;;;;;;;4995656;28;20026;-85
2022/01/11 02:48:55;;;;;;;28.75;15.50;;;;;;;;;;4998851;28;20053;-85
2022/01/11 02:51:22;;;;;;;33.20;16.45;;;;;;;;;;4995979;28;20053;-86
2022/01/11 02:53:49;;;;;;;33.65;16.80;;;;;;;;;;5002633;28;20481;-87
2022/01/11 02:56:17;;;;;;;29.05;16.45;;;;;;;;;;4977831;28;20046;-87
2022/01/11 02:58:42;;;;;;;33.63;16.15;;;;;;;;;;4995305;28;20034;-86
2022/01/11 03:01:09;;;;;;;28.63;14.70;;;;;;;;;;4977621;28;20088;-84
2022/01/11 03:03:35;;;;;;;33.90;15.32;;;;;;;;;;4979677;28;20041;-86
2022/01/11 03:06:03;;;;;;;31.48;16.05;;;;;;;;;;4995043;28;20023;-85
2022/01/11 03:08:31;;;;;;;31.95;15.80;;;;;;;;;;4994810;28;20472;-86
2022/01/11 03:10:57;;;;;;;33.72;16.20;;;;;;;;;;4995023;28;20034;-86
2022/01/11 03:13:23;;;;;;;31.55;16.10;;;;;;;;;;4986415;28;20035;-85
2022/01/11 03:15:49;;;;;;;32.38;15.70;;;;;;;;;;4993241;28;20022;-86
2022/01/11 03:18:15;;;;;;;31.30;16.80;;;;;;;;;;4989651;28;20030;-85
2022/01/11 03:20:43;;;;;;;32.45;14.80;;;;;;;;;;5001415;28;20025;-86
2022/01/11 03:23:09;;;;;;;32.85;16.30;;;;;;;;;;4986045;28;20473;-86
2022/01/11 03:25:34;;;;;;;30.10;16.73;;;;;;;;;;5005576;28;20018;-86
2022/01/11 03:28:00;;;;;;;33.75;17.27;;;;;;;;;;4993936;28;20027;-86
2022/01/11 03:30:26;;;;;;;30.67;16.33;;;;;;;;;;4997264;28;20065;-86
2022/01/11 03:32:52;;;;;;;31.67;15.82;;;;;;;;;;4998099;28;20034;-84
2022/01/11 03:35:17;;;;;;;35.83;17.27;;;;;;;;;;5009758;28;20022;-83
2022/01/11 03:37:44;;;;;;;32.45;15.95;;;;;;;;;;5003314;28;20097;-85
2022/01/11 03:40:13;;;;;;;32.13;15.90;;;;;;;;;;4996924;28;20086;-86
2022/01/11 03:42:39;;;;;;;30.63;16.73;;;;;;;;;;4998538;28;20499;-87
2022/01/11 03:45:07;;;;;;;35.75;17.00;;;;;;;;;;5005901;28;20018;-87
2022/01/11 03:47:33;;;;;;;32.90;16.75;;;;;;;;;;5002440;28;20030;-85
2022/01/11 03:49:58;;;;;;;31.80;16.75;;;;;;;;;;4998252;28;20084;-84
2022/01/11 03:52:24;;;;;;;35.42;18.17;;;;;;;;;;4988167;28;20026;-85
2022/01/11 03:55:03;;;;;;;32.83;16.35;;;;;;;;;;4987734;28;20080;-86
2022/01/11 03:57:30;;;;;;;38.38;16.23;;;;;;;;;;4997924;28;20434;-86
2022/01/11 03:59:57;;;;;;;34.05;16.75;;;;;;;;;;4979626;28;20026;-86
2022/01/11 04:02:23;;;;;;;30.25;15.95;;;;;;;;;;4997945;28;20833;-86
2022/01/11 04:04:52;;;;;;;37.72;18.73;;;;;;;;;;4979878;28;20054;-86
2022/01/11 04:07:24;;;;;;;46.85;19.25;;;;;;;;;;4997637;28;20030;-86
2022/01/11 04:09:50;;;;;;;36.37;18.43;;;;;;;;;;4991417;28;20054;-86
2022/01/11 04:12:16;;;;;;;32.20;16.65;;;;;;;;;;4998911;28;20030;-87
2022/01/11 04:14:41;;;;;;;36.60;17.40;;;;;;;;;;5006742;28;20185;-87
2022/01/11 04:17:07;;;;;;;33.63;17.77;;;;;;;;;;5010429;28;20045;-88
2022/01/11 04:19:32;;;;;;;40.88;17.33;;;;;;;;;;5008574;28;20030;-86
2022/01/11 04:21:58;;;;;;;31.83;16.58;;;;;;;;;;5017088;28;20038;-85
2022/01/11 04:24:24;;;;;;;38.17;17.15;;;;;;;;;;5017719;28;20028;-87
2022/01/11 04:26:49;;;;;;;31.67;16.83;;;;;;;;;;5009577;28;20033;-86
2022/01/11 04:29:14;;;;;;;36.30;15.65;;;;;;;;;;4998113;28;20081;-86
2022/01/11 04:31:40;;;;;;;30.73;16.13;;;;;;;;;;4997925;28;20026;-87
2022/01/11 04:34:06;;;;;;;32.08;16.15;;;;;;;;;;4999059;28;20033;-86
2022/01/11 04:36:33;;;;;;;30.38;15.57;;;;;;;;;;5003935;28;20030;-85
2022/01/11 04:38:59;;;;;;;32.65;16.02;;;;;;;;;;4997578;28;20054;-86
2022/01/11 04:41:24;;;;;;;31.75;16.02;;;;;;;;;;4997595;28;20033;-86
2022/01/11 04:43:50;;;;;;;34.65;15.77;;;;;;;;;;4996818;28;20022;-86
2022/01/11 04:46:18;;;;;;;35.03;17.23;;;;;;;;;;5009640;28;20110;-87
2022/01/11 04:48:47;;;;;;;36.85;16.88;;;;;;;;;;5006474;28;20369;-85
2022/01/11 04:51:12;;;;;;;31.23;16.85;;;;;;;;;;4980351;28;20220;-86
2022/01/11 04:53:38;;;;;;;35.33;16.35;;;;;;;;;;5005743;28;20039;-86
2022/01/11 04:56:04;;;;;;;38.72;17.13;;;;;;;;;;5016197;28;20044;-87
2022/01/11 04:58:30;;;;;;;31.27;16.55;;;;;;;;;;5015856;28;20054;-87
2022/01/11 05:00:55;;;;;;;34.53;16.75;;;;;;;;;;5011710;28;20031;-86
2022/01/11 05:03:21;;;;;;;34.17;16.73;;;;;;;;;;5008198;28;20476;-87
2022/01/11 05:05:47;;;;;;;35.05;16.40;;;;;;;;;;5004657;28;20109;-84
2022/01/11 05:08:13;;;;;;;36.53;17.98;;;;;;;;;;4997101;28;20258;-87
2022/01/11 05:10:42;;;;;;;36.13;16.60;;;;;;;;;;4999662;28;20468;-87
2022/01/11 05:13:16;;;;;;;33.90;17.55;;;;;;;;;;5006175;28;20045;-86
2022/01/11 05:15:42;;;;;;;34.33;16.80;;;;;;;;;;5013935;28;20021;-87
2022/01/11 05:18:08;;;;;;;32.70;15.80;;;;;;;;;;5021997;28;20060;-86
2022/01/11 05:20:34;;;;;;;32.25;15.43;;;;;;;;;;5026351;28;20030;-85
2022/01/11 05:23:00;;;;;;;29.35;16.13;;;;;;;;;;5012899;28;20183;-84
2022/01/11 05:25:26;;;;;;;33.53;16.13;;;;;;;;;;4979780;28;20508;-86
2022/01/11 05:27:51;;;;;;;32.10;16.35;;;;;;;;;;4996743;28;20058;-85
2022/01/11 05:30:17;;;;;;;32.85;16.08;;;;;;;;;;4995561;28;20472;-86
2022/01/11 05:32:43;;;;;;;33.22;16.65;;;;;;;;;;4995494;28;20105;-85
2022/01/11 05:35:11;;;;;;;35.28;17.10;;;;;;;;;;4995139;28;20034;-85
2022/01/11 05:37:37;;;;;;;34.08;16.55;;;;;;;;;;4995408;28;20110;-86
2022/01/11 05:40:05;;;;;;;33.10;16.17;;;;;;;;;;4985009;28;20057;-85
2022/01/11 05:42:30;;;;;;;40.95;16.88;;;;;;;;;;4995029;28;20030;-87
2022/01/11 05:44:56;;;;;;;36.38;17.38;;;;;;;;;;4995243;28;20022;-85
2022/01/11 05:47:21;;;;;;;33.85;15.93;;;;;;;;;;4999606;28;20083;-85
2022/01/11 05:49:47;;;;;;;36.58;16.13;;;;;;;;;;5014717;28;20049;-85
2022/01/11 05:52:12;;;;;;;30.45;15.45;;;;;;;;;;4994423;28;20716;-83
2022/01/11 05:54:38;;;;;;;31.65;15.85;;;;;;;;;;4999188;28;20043;-85
2022/01/11 05:57:04;;;;;;;38.50;16.00;;;;;;;;;;4993273;28;20034;-85
2022/01/11 05:59:29;;;;;;;42.85;15.77;;;;;;;;;;4981907;28;20049;-84
2022/01/11 06:01:55;;;;;;;30.73;14.70;;;;;;;;;;4997514;28;20030;-88
2022/01/11 06:04:20;;;;;;;32.45;14.88;;;;;;;;;;4995133;28;20022;-86
2022/01/11 06:06:46;;;;;;;36.63;16.00;;;;;;;;;;4995971;28;20033;-85
2022/01/11 06:09:11;;;;;;;37.05;15.52;;;;;;;;;;4995924;28;20081;-86
2022/01/11 06:11:36;;;;;;;30.80;15.77;;;;;;;;;;4990897;28;20045;-87
2022/01/11 06:14:02;;;;;;;38.53;18.23;;;;;;;;;;4995202;28;20034;-87
2022/01/11 06:16:28;;;;;;;45.92;20.33;;;;;;;;;;4997527;28;20026;-87
2022/01/11 06:18:53;;;;;;;47.80;20.25;;;;;;;;;;4996709;28;20495;-88
2022/01/11 06:21:19;;;;;;;52.25;21.52;;;;;;;;;;4980509;28;20026;-85
2022/01/11 06:23:48;;;;;;;59.83;24.23;;;;;;;;;;4990562;28;20034;-87
2022/01/11 06:26:15;;;;;;;45.78;21.25;;;;;;;;;;4995036;28;20026;-86
2022/01/11 06:28:41;;;;;;;41.28;19.42;;;;;;;;;;4978578;28;20028;-86
2022/01/11 06:31:07;;;;;;;39.15;19.85;;;;;;;;;;4978348;28;20113;-87
2022/01/11 06:33:32;;;;;;;44.63;19.42;;;;;;;;;;4989276;28;20078;-86
2022/01/11 06:35:58;;;;;;;45.55;19.25;;;;;;;;;;4993936;28;20022;-86
2022/01/11 06:38:23;;;;;;;44.92;19.15;;;;;;;;;;4997017;28;20038;-88
2022/01/11 06:40:48;;;;;;;41.47;20.08;;;;;;;;;;4976113;28;20026;-83
2022/01/11 06:43:14;;;;;;;39.30;18.52;;;;;;;;;;4997313;28;20080;-86
2022/01/11 06:45:40;;;;;;;37.05;17.48;;;;;;;;;;4996937;28;20060;-86
2022/01/11 06:48:06;;;;;;;38.35;19.40;;;;;;;;;;4998334;28;20031;-87
2022/01/11 06:50:32;;;;;;;35.35;18.13;;;;;;;;;;4994489;28;20145;-86
2022/01/11 06:52:59;;;;;;;41.00;18.85;;;;;;;;;;5003145;28;20489;-87
2022/01/11 06:55:24;;;;;;;39.08;18.35;;;;;;;;;;5005716;28;20049;-86
2022/01/11 06:57:50;;;;;;;37.83;19.35;;;;;;;;;;5020454;28;20018;-86
2022/01/11 07:00:16;;;;;;;31.08;16.40;;;;;;;;;;4997219;28;20027;-86
2022/01/11 07:02:42;;;;;;;35.75;17.80;;;;;;;;;;5007285;28;20029;-85
2022/01/11 07:05:08;;;;;;;38.03;18.58;;;;;;;;;;5021594;28;20014;-87
2022/01/11 07:07:34;;;;;;;36.75;17.60;;;;;;;;;;5007960;28;20102;-88
2022/01/11 07:09:59;;;;;;;30.67;16.33;;;;;;;;;;5012759;28;20151;-86
2022/01/11 07:12:25;;;;;;;35.00;17.50;;;;;;;;;;5019388;28;20037;-84
2022/01/11 07:14:51;;;;;;;32.33;16.92;;;;;;;;;;5004353;28;20109;-84
2022/01/11 07:17:16;;;;;;;32.38;16.92;;;;;;;;;;4995475;28;20109;-86
2022/01/11 07:19:42;;;;;;;32.35;17.20;;;;;;;;;;5019521;28;20499;-86
2022/01/11 07:22:09;;;;;;;32.72;16.58;;;;;;;;;;5014695;28;20548;-85
2022/01/11 07:24:34;;;;;;;30.40;15.63;;;;;;;;;;5017079;28;20022;-85
2022/01/11 07:27:00;;;;;;;33.35;16.42;;;;;;;;;;4995307;28;20030;-85
2022/01/11 07:29:26;;;;;;;29.95;16.88;;;;;;;;;;4989639;28;20029;-84
2022/01/11 07:31:51;;;;;;;33.28;16.02;;;;;;;;;;4986160;28;20022;-84
2022/01/11 07:34:17;;;;;;;28.88;15.82;;;;;;;;;;4983569;28;20066;-85
2022/01/11 07:36:43;;;;;;;28.85;16.30;;;;;;;;;;5000942;28;20102;-84
2022/01/11 07:39:10;;;;;;;35.25;15.23;;;;;;;;;;5008600;28;20113;-84
2022/01/11 07:41:36;;;;;;;34.38;15.85;;;;;;;;;;5000737;28;20104;-85
2022/01/11 07:44:01;;;;;;;28.45;15.82;;;;;;;;;;5000556;28;20019;-86
2022/01/11 07:46:27;;;;;;;29.75;16.10;;;;;;;;;;5007833;28;20407;-84
2022/01/11 07:48:53;;;;;;;26.08;15.05;;;;;;;;;;4989693;28;20030;-85
2022/01/11 07:51:18;;;;;;;28.17;15.55;;;;;;;;;;5000810;28;20026;-85
2022/01/11 07:53:44;;;;;;;26.60;15.30;;;;;;;;;;4989926;28;20022;-87
2022/01/11 07:56:09;;;;;;;31.25;15.30;;;;;;;;;;5010921;28;20022;-84
2022/01/11 07:58:35;;;;;;;26.85;16.67;;;;;;;;;;5017964;28;20026;-85
2022/01/11 08:01:00;;;;;;;33.03;15.55;;;;;;;;;;5014461;28;20384;-83
2022/01/11 08:03:26;;;;;;;35.10;15.98;;;;;;;;;;5012842;28;20530;-84
2022/01/11 08:05:52;;;;;;;37.60;16.95;;;;;;;;;;5009736;28;20090;-83
2022/01/11 08:08:18;;;;;;;31.65;16.20;;;;;;;;;;4999103;28;20109;-83
2022/01/11 08:10:43;;;;;;;39.75;16.65;;;;;;;;;;4981762;28;20030;-84
2022/01/11 08:13:10;;;;;;;31.85;15.40;;;;;;;;;;4998582;28;20030;-84
2022/01/11 08:15:37;;;;;;;29.42;16.33;;;;;;;;;;4998306;28;20026;-84
2022/01/11 08:18:03;;;;;;;38.63;18.00;;;;;;;;;;4999214;28;20117;-82
2022/01/11 08:20:29;;;;;;;35.60;17.10;;;;;;;;;;4999917;28;20085;-84
2022/01/11 08:22:55;;;;;;;38.38;18.63;;;;;;;;;;4998898;28;20034;-85
2022/01/11 08:25:20;;;;;;;35.38;17.50;;;;;;;;;;5000230;28;20025;-85
2022/01/11 08:27:46;;;;;;;37.10;18.67;;;;;;;;;;4999364;28;20026;-84
2022/01/11 08:30:14;;;;;;;38.13;18.20;;;;;;;;;;4999248;28;20026;-85
2022/01/11 08:32:40;;;;;;;34.28;18.73;;;;;;;;;;5000202;28;20037;-86
2022/01/11 08:35:06;;;;;;;30.42;16.83;;;;;;;;;;4983377;28;20026;-86
2022/01/11 08:37:31;;;;;;;37.20;19.02;;;;;;;;;;5017983;28;20032;-85
2022/01/11 08:39:57;;;;;;;33.38;16.95;;;;;;;;;;5025028;28;20018;-86
2022/01/11 08:42:23;;;;;;;43.40;18.20;;;;;;;;;;5017034;28;20096;-85
2022/01/11 08:44:52;;;;;;;33.75;17.75;;;;;;;;;;4995424;28;20201;-85
2022/01/11 08:47:17;;;;;;;31.50;16.77;;;;;;;;;;5002008;28;20026;-86
2022/01/11 08:49:43;;;;;;;36.60;17.58;;;;;;;;;;4999131;28;20077;-86
2022/01/11 08:52:10;;;;;;;31.38;17.00;;;;;;;;;;4993812;28;20087;-86
2022/01/11 08:54:36;;;;;;;32.78;16.88;;;;;;;;;;5009938;28;20453;-85
2022/01/11 08:57:02;;;;;;;34.08;17.60;;;;;;;;;;5002423;28;20030;-85
2022/01/11 08:59:27;;;;;;;34.10;18.33;;;;;;;;;;5001164;28;20109;-88
2022/01/11 09:01:58;;;;;;;36.38;17.50;;;;;;;;;;5014221;28;20026;-86
2022/01/11 09:04:24;;;;;;;33.38;16.98;;;;;;;;;;5007934;28;20023;-85
2022/01/11 09:06:51;;;;;;;33.92;17.27;;;;;;;;;;4992556;28;20030;-88
2022/01/11 09:09:17;;;;;;;34.67;17.55;;;;;;;;;;5007192;28;20029;-87
2022/01/11 09:11:43;;;;;;;36.25;18.52;;;;;;;;;;5007086;28;20048;-85
2022/01/11 09:14:10;;;;;;;40.05;18.80;;;;;;;;;;4984128;28;20396;-86
2022/01/11 09:16:35;;;;;;;31.73;17.27;;;;;;;;;;5010295;28;20048;-86
2022/01/11 09:19:00;;;;;;;30.60;17.42;;;;;;;;;;5018106;28;20085;-86
2022/01/11 09:21:26;;;;;;;36.25;18.65;;;;;;;;;;5018613;28;20032;-85
2022/01/11 09:23:52;;;;;;;30.48;17.55;;;;;;;;;;5000757;28;20388;-85
2022/01/11 09:26:17;;;;;;;32.78;17.83;;;;;;;;;;4992737;28;20110;-84
2022/01/11 09:28:43;;;;;;;36.58;18.85;;;;;;;;;;5002309;28;20056;-86
2022/01/11 09:31:08;;;;;;;35.35;18.40;;;;;;;;;;4999295;28;20033;-85
2022/01/11 09:33:34;;;;;;;39.22;18.48;;;;;;;;;;5016510;28;20046;-83
2022/01/11 09:36:00;;;;;;;33.92;18.67;;;;;;;;;;4986009;28;20033;-84
2022/01/11 09:38:27;;;;;;;34.15;17.10;;;;;;;;;;5000664;28;20040;-85
2022/01/11 09:40:55;;;;;;;34.05;17.17;;;;;;;;;;5014965;28;20037;-84
2022/01/11 09:43:22;;;;;;;34.83;18.35;;;;;;;;;;4998210;28;20037;-87
2022/01/11 09:45:48;;;;;;;32.10;16.60;;;;;;;;;;5014358;28;20022;-87
2022/01/11 09:48:14;;;;;;;32.30;16.52;;;;;;;;;;4983067;28;20030;-86
2022/01/11 09:50:40;;;;;;;34.30;17.63;;;;;;;;;;4992710;28;20033;-84
2022/01/11 09:53:05;;;;;;;35.03;18.25;;;;;;;;;;5003462;28;20022;-87
2022/01/11 09:55:31;;;;;;;22.65;13.65;;;;;;;;;;5017876;28;20030;-86
2022/01/11 09:57:57;;;;;;;26.98;15.18;;;;;;;;;;4999640;28;20037;-87
2022/01/11 10:00:23;;;;;;;33.67;15.98;;;;;;;;;;5003397;28;20480;-86
2022/01/11 10:02:48;;;;;;;30.67;15.07;;;;;;;;;;5014481;28;20499;-85
2022/01/11 10:05:14;;;;;;;24.33;14.48;;;;;;;;;;4987881;28;20031;-89
2022/01/11 10:07:42;;;;;;;27.67;15.07;;;;;;;;;;5009691;28;20030;-88
2022/01/11 10:10:16;;;;;;;25.48;15.57;;;;;;;;;;5001948;28;20477;-87
2022/01/11 10:12:50;;;;;;;26.40;13.38;;;;;;;;;;4998753;28;20106;-85
2022/01/11 10:15:30;;;;;;;26.25;14.90;;;;;;;;;;4992692;28;20026;-87
2022/01/11 10:17:56;;;;;;;23.85;13.48;;;;;;;;;;4999641;28;20492;-86
2022/01/11 10:20:23;;;;;;;30.40;15.57;;;;;;;;;;4998443;28;20113;-86
2022/01/11 10:22:56;;;;;;;23.85;13.15;;;;;;;;;;4988560;28;20018;-85
2022/01/11 10:25:22;;;;;;;21.70;12.40;;;;;;;;;;5004767;28;20041;-85
2022/01/11 10:28:02;;;;;;;24.70;13.27;;;;;;;;;;4997130;28;20167;-84
2022/01/11 10:30:29;;;;;;;23.95;12.52;;;;;;;;;;4978151;28;20054;-87
2022/01/11 10:32:57;;;;;;;22.13;12.23;;;;;;;;;;4986881;28;20036;-84
2022/01/11 10:35:30;;;;;;;27.88;13.25;;;;;;;;;;5000684;28;20057;-86
2022/01/11 10:38:00;;;;;;;22.48;11.25;;;;;;;;;;4989023;28;20094;-85
2022/01/11 10:40:34;;;;;;;24.83;13.00;;;;;;;;;;5016683;28;20056;-85
2022/01/11 10:43:06;;;;;;;22.38;11.00;;;;;;;;;;4998936;28;20033;-84
2022/01/11 10:45:34;;;;;;;20.48;11.60;;;;;;;;;;4999787;28;20050;-85
2022/01/11 10:48:03;;;;;;;18.40;10.70;;;;;;;;;;4995796;28;20034;-84
2022/01/11 10:50:34;;;;;;;18.55;10.68;;;;;;;;;;4995772;28;20057;-85
2022/01/11 10:53:03;;;;;;;29.48;12.40;;;;;;;;;;4997458;28;20105;-86
2022/01/11 10:55:31;;;;;;;25.88;12.38;;;;;;;;;;5001810;28;20110;-84
2022/01/11 10:58:03;;;;;;;25.05;10.77;;;;;;;;;;4995693;28;20023;-85
2022/01/11 11:00:31;;;;;;;15.70;9.27;;;;;;;;;;4989656;28;20113;-84
2022/01/11 11:02:58;;;;;;;16.33;8.98;;;;;;;;;;4994764;28;20026;-83
2022/01/11 11:05:30;;;;;;;16.05;9.35;;;;;;;;;;5014654;28;20104;-86
2022/01/11 11:08:05;;;;;;;21.40;8.77;;;;;;;;;;5010450;28;20034;-85
2022/01/11 11:10:32;;;;;;;16.60;8.27;;;;;;;;;;5015151;28;20030;-84
2022/01/11 11:12:58;;;;;;;16.17;9.55;;;;;;;;;;5014502;28;20563;-85
2022/01/11 11:15:33;;;;;;;15.73;10.18;;;;;;;;;;4982753;28;20121;-84
2022/01/11 11:17:58;;;;;;;16.73;9.02;;;;;;;;;;4993788;28;20483;-85
2022/01/11 11:20:24;;;;;;;17.98;9.77;;;;;;;;;;5013715;28;20041;-84
2022/01/11 11:22:51;;;;;;;15.07;8.77;;;;;;;;;;4980408;28;20511;-84
2022/01/11 11:25:17;;;;;;;19.17;7.93;;;;;;;;;;4993540;28;20025;-84
2022/01/11 11:27:42;;;;;;;15.00;7.97;;;;;;;;;;4993523;28;20023;-84
2022/01/11 11:30:07;;;;;;;17.52;9.30;;;;;;;;;;4985758;28;20026;-86
2022/01/11 11:32:33;;;;;;;19.48;10.02;;;;;;;;;;4997240;28;20054;-87
2022/01/11 11:34:59;;;;;;;12.65;6.63;;;;;;;;;;4980798;28;20019;-86
2022/01/11 11:37:35;;;;;;;11.90;6.80;;;;;;;;;;4987118;28;20032;-86
2022/01/11 11:40:06;;;;;;;12.30;6.28;;;;;;;;;;5009478;28;20042;-86
2022/01/11 11:42:32;;;;;;;14.18;6.63;;;;;;;;;;4981262;28;20030;-87
2022/01/11 11:44:59;;;;;;;13.18;6.68;;;;;;;;;;4972327;28;20019;-86
2022/01/11 11:47:34;;;;;;;10.05;5.05;;;;;;;;;;4985048;28;20483;-88
2022/01/11 11:50:01;;;;;;;8.25;4.82;;;;;;;;;;5016455;28;20511;-86
2022/01/11 11:52:37;;;;;;;7.97;4.60;;;;;;;;;;5006350;28;20029;-88
2022/01/11 11:55:09;;;;;;;6.38;2.85;;;;;;;;;;5010569;28;20030;-87
2022/01/11 11:57:36;;;;;;;5.53;3.33;;;;;;;;;;4983823;28;20489;-87
2022/01/11 12:00:08;;;;;;;7.03;3.58;;;;;;;;;;4983900;28;20405;-84
2022/01/11 12:02:48;;;;;;;10.88;4.00;;;;;;;;;;5000692;28;20026;-85
2022/01/11 12:05:31;;;;;;;8.70;4.22;;;;;;;;;;5003138;28;20031;-88
2022/01/11 12:07:57;;;;;;;7.78;4.50;;;;;;;;;;5015313;28;20029;-88
2022/01/11 12:10:49;;;;;;;4.63;3.15;;;;;;;;;;5028999;28;20025;-87
2022/01/11 12:13:33;;;;;;;;;;;;;;;;;;5021808;28;20024;-85
2022/01/11 12:15:59;;;;;;;7.65;4.60;;;;;;;;;;4997977;28;19910;-86
2022/01/11 12:18:24;;;;;;;5.90;3.60;;;;;;;;;;5002613;28;20022;-88
2022/01/11 12:20:56;;;;;;;5.43;3.10;;;;;;;;;;5004372;28;20029;-88
2022/01/11 12:23:33;;;;;;;;;;;;;;;;;;5013281;28;20015;-88
2022/01/11 12:26:13;;;;;;;4.97;2.83;;;;;;;;;;5000611;28;19917;-86
2022/01/11 12:28:39;;;;;;;6.32;3.30;;;;;;;;;;5017581;28;20029;-85
2022/01/11 12:31:28;;;;;;;9.65;3.15;;;;;;;;;;5005203;28;20034;-86
2022/01/11 12:33:53;;;;;;;5.40;3.35;;;;;;;;;;4987647;28;20061;-87
2022/01/11 12:36:19;;;;;;;6.40;3.50;;;;;;;;;;5005468;28;20026;-87
2022/01/11 12:39:04;;;;;;;9.57;4.00;;;;;;;;;;4998146;28;20050;-85
2022/01/11 12:41:33;;;;;;;5.85;3.67;;;;;;;;;;4990778;28;20594;-87
2022/01/11 12:46:54;;;;;;;5.47;2.92;;;;;;;;;;4993043;28;20502;-85
2022/01/11 12:49:21;;;;;;;4.50;3.00;;;;;;;;;;5002565;28;20111;-86
2022/01/11 12:51:55;;;;;;;4.10;2.92;;;;;;;;;;4986914;28;20037;-87
2022/01/11 12:54:26;;;;;;;6.25;3.60;;;;;;;;;;4993814;28;20025;-84
2022/01/11 12:56:57;;;;;;;4.30;2.95;;;;;;;;;;5016346;28;20057;-83
2022/01/11 12:59:27;;;;;;;4.60;2.88;;;;;;;;;;5009675;28;20036;-85
2022/01/11 13:01:58;;;;;;;6.05;3.08;;;;;;;;;;5000617;28;20025;-87
2022/01/11 13:04:55;;;;;;;6.28;2.60;;;;;;;;;;5002740;28;20447;-86
2022/01/11 13:07:27;;;;;;;4.45;2.50;;;;;;;;;;4981675;28;20014;-85
2022/01/11 13:10:05;;;;;;;4.18;2.60;;;;;;;;;;4990247;28;20037;-86
2022/01/11 13:12:40;;;;;;;4.60;3.00;;;;;;;;;;4996837;28;20026;-83
2022/01/11 13:15:17;;;;;;;4.57;2.90;;;;;;;;;;4986234;28;20541;-83
2022/01/11 13:18:31;;;;;;;4.18;2.75;;;;;;;;;;4997681;28;20112;-86
2022/01/11 13:21:06;;;;;;;4.38;2.55;;;;;;;;;;4995228;28;20125;-83
2022/01/11 13:23:45;;;;;;;2.08;1.63;;;;;;;;;;4990757;28;20017;-86
2022/01/11 13:26:13;;;;;;;2.15;1.70;;;;;;;;;;5005942;28;20022;-82
2022/01/11 13:28:46;;;;;;;4.45;2.28;;;;;;;;;;4997678;28;20027;-83
2022/01/11 13:31:14;;;;;;;2.45;2.00;;;;;;;;;;5013116;28;20053;-83
2022/01/11 13:33:44;;;;;;;4.57;2.25;;;;;;;;;;4996322;28;20026;-84
2022/01/11 13:36:27;;;;;;;2.53;1.92;;;;;;;;;;4995984;28;20033;-84
2022/01/11 13:42:33;;;;;;;3.05;2.00;;;;;;;;;;4925605;28;20568;-83
2022/01/11 13:45:14;;;;;;;2.78;2.10;;;;;;;;;;4982891;28;20457;-83
2022/01/11 13:48:34;;;;;;;4.65;2.33;;;;;;;;;;4974262;28;20037;-84
2022/01/11 13:51:08;;;;;;;2.75;2.25;;;;;;;;;;4937037;29;20043;-82
2022/01/11 13:53:47;;;;;;;4.90;2.25;;;;;;;;;;4919530;29;20095;-84
2022/01/11 13:59:35;;;;;;;4.07;2.50;;;;;;;;;;4917608;29;20042;-84
2022/01/11 14:02:05;;;;;;;3.53;2.58;;;;;;;;;;4973962;28;20102;-84
2022/01/11 14:04:45;;;;;;;4.43;2.58;;;;;;;;;;4991959;28;20022;-84
2022/01/11 14:07:17;;;;;;;3.03;2.40;;;;;;;;;;4996829;28;20085;-85
2022/01/11 14:09:49;;;;;;;3.92;2.67;;;;;;;;;;4972768;28;20021;-86
2022/01/11 14:12:25;;;;;;;5.13;2.58;;;;;;;;;;4975940;28;20093;-84
2022/01/11 14:15:04;;;;;;;4.78;2.63;;;;;;;;;;4977112;28;20043;-85
2022/01/11 14:17:33;;;;;;;4.93;3.08;;;;;;;;;;4976517;28;20219;-85
2022/01/11 14:20:04;;;;;;;10.27;2.80;;;;;;;;;;4977202;28;20030;-84
2022/01/11 14:22:48;;;;;;;6.65;2.92;;;;;;;;;;4988486;28;20022;-86
2022/01/11 14:25:55;;;;;;;3.22;2.60;;;;;;;;;;5004404;28;20377;-85
2022/01/11 14:28:32;;;;;;;3.63;2.30;;;;;;;;;;4984541;28;20048;-85
2022/01/11 14:31:18;;;;;;;5.40;3.08;;;;;;;;;;4998428;28;20477;-83
2022/01/11 14:34:50;;;;;;;5.43;3.00;;;;;;;;;;5000917;28;20025;-86
2022/01/11 14:41:48;;;;;;;5.43;2.75;;;;;;;;;;4908215;29;20259;-85
2022/01/11 14:45:12;;;;;;;4.40;2.70;;;;;;;;;;4914658;29;20028;-84
2022/01/11 14:48:10;;;;;;;4.75;2.75;;;;;;;;;;4902430;29;20060;-85